sensor_id;sensor_type;location;lat;lon;timestamp;P1;durP1;ratioP1;P2;durP2;ratioP2
22634;SDS011;11484;50.858;4.384;2023-04-30T00:01:39;14.52;;;9.20;;
22634;SDS011;11484;50.858;4.384;2023-04-30T00:04:05;15.40;;;9.60;;
22634;SDS011;11484;50.858;4.384;2023-04-30T00:06:31;14.90;;;9.23;;
22634;SDS011;11484;50.858;4.384;2023-04-30T00:08:56;16.30;;;9.65;;
22634;SDS011;11484;50.858;4.384;2023-04-30T00:11:22;14.25;;;8.85;;
22634;SDS011;11484;50.858;4.384;2023-04-30T00:13:49;15.35;;;9.75;;
22634;SDS011;11484;50.858;4.384;2023-04-30T00:16:16;13.77;;;8.23;;
22634;SDS011;11484;50.858;4.384;2023-04-30T00:18:41;14.75;;;8.65;;
22634;SDS011;11484;50.858;4.384;2023-04-30T00:21:07;14.32;;;8.70;;
22634;SDS011;11484;50.858;4.384;2023-04-30T00:23:33;14.32;;;9.23;;
22634;SDS011;11484;50.858;4.384;2023-04-30T00:25:59;14.32;;;8.40;;
22634;SDS011;11484;50.858;4.384;2023-04-30T00:28:24;13.63;;;7.93;;
22634;SDS011;11484;50.858;4.384;2023-04-30T00:30:50;12.73;;;8.40;;
22634;SDS011;11484;50.858;4.384;2023-04-30T00:33:16;12.50;;;8.60;;
22634;SDS011;11484;50.858;4.384;2023-04-30T00:35:42;12.60;;;8.35;;
22634;SDS011;11484;50.858;4.384;2023-04-30T00:38:08;10.35;;;7.53;;
22634;SDS011;11484;50.858;4.384;2023-04-30T00:40:34;12.60;;;7.32;;
22634;SDS011;11484;50.858;4.384;2023-04-30T00:43:00;10.18;;;7.35;;
22634;SDS011;11484;50.858;4.384;2023-04-30T00:45:26;13.55;;;8.20;;
22634;SDS011;11484;50.858;4.384;2023-04-30T00:47:52;10.52;;;7.28;;
22634;SDS011;11484;50.858;4.384;2023-04-30T00:50:18;10.45;;;6.85;;
22634;SDS011;11484;50.858;4.384;2023-04-30T00:52:44;11.48;;;6.80;;
22634;SDS011;11484;50.858;4.384;2023-04-30T00:55:10;10.77;;;6.70;;
22634;SDS011;11484;50.858;4.384;2023-04-30T00:57:37;12.88;;;7.20;;
22634;SDS011;11484;50.858;4.384;2023-04-30T01:00:04;11.90;;;6.80;;
22634;SDS011;11484;50.858;4.384;2023-04-30T01:02:33;8.85;;;6.47;;
22634;SDS011;11484;50.858;4.384;2023-04-30T01:05:00;11.10;;;6.78;;
22634;SDS011;11484;50.858;4.384;2023-04-30T01:07:30;11.13;;;7.10;;
22634;SDS011;11484;50.858;4.384;2023-04-30T01:09:56;11.50;;;6.53;;
22634;SDS011;11484;50.858;4.384;2023-04-30T01:12:35;8.95;;;6.03;;
22634;SDS011;11484;50.858;4.384;2023-04-30T01:18:21;9.82;;;5.82;;
22634;SDS011;11484;50.858;4.384;2023-04-30T01:20:53;10.27;;;6.60;;
22634;SDS011;11484;50.858;4.384;2023-04-30T01:28:49;8.02;;;5.50;;
22634;SDS011;11484;50.858;4.384;2023-04-30T01:31:17;8.32;;;5.53;;
22634;SDS011;11484;50.858;4.384;2023-04-30T01:33:43;8.27;;;6.07;;
22634;SDS011;11484;50.858;4.384;2023-04-30T01:36:28;7.25;;;5.15;;
22634;SDS011;11484;50.858;4.384;2023-04-30T01:42:17;11.77;;;5.80;;
22634;SDS011;11484;50.858;4.384;2023-04-30T01:47:40;8.68;;;5.40;;
22634;SDS011;11484;50.858;4.384;2023-04-30T01:53:01;9.48;;;5.90;;
22634;SDS011;11484;50.858;4.384;2023-04-30T01:55:33;8.38;;;5.75;;
22634;SDS011;11484;50.858;4.384;2023-04-30T01:58:06;8.05;;;5.45;;
22634;SDS011;11484;50.858;4.384;2023-04-30T02:00:34;6.90;;;5.13;;
22634;SDS011;11484;50.858;4.384;2023-04-30T02:03:00;8.13;;;5.45;;
22634;SDS011;11484;50.858;4.384;2023-04-30T02:05:27;7.53;;;5.45;;
22634;SDS011;11484;50.858;4.384;2023-04-30T02:07:53;7.88;;;5.45;;
22634;SDS011;11484;50.858;4.384;2023-04-30T02:10:20;9.68;;;5.88;;
22634;SDS011;11484;50.858;4.384;2023-04-30T02:12:47;9.55;;;6.03;;
22634;SDS011;11484;50.858;4.384;2023-04-30T02:15:13;8.23;;;5.28;;
22634;SDS011;11484;50.858;4.384;2023-04-30T02:17:39;10.98;;;6.10;;
22634;SDS011;11484;50.858;4.384;2023-04-30T02:20:05;8.80;;;5.43;;
22634;SDS011;11484;50.858;4.384;2023-04-30T02:22:32;9.18;;;5.93;;
22634;SDS011;11484;50.858;4.384;2023-04-30T02:24:57;8.25;;;5.25;;
22634;SDS011;11484;50.858;4.384;2023-04-30T02:27:24;11.00;;;6.13;;
22634;SDS011;11484;50.858;4.384;2023-04-30T02:29:52;8.50;;;5.60;;
22634;SDS011;11484;50.858;4.384;2023-04-30T02:32:18;9.30;;;6.00;;
22634;SDS011;11484;50.858;4.384;2023-04-30T02:34:44;10.57;;;6.35;;
22634;SDS011;11484;50.858;4.384;2023-04-30T02:37:10;11.90;;;6.10;;
22634;SDS011;11484;50.858;4.384;2023-04-30T02:39:35;9.13;;;5.72;;
22634;SDS011;11484;50.858;4.384;2023-04-30T02:42:01;9.25;;;5.60;;
22634;SDS011;11484;50.858;4.384;2023-04-30T02:44:28;9.63;;;5.80;;
22634;SDS011;11484;50.858;4.384;2023-04-30T02:46:54;9.85;;;6.03;;
22634;SDS011;11484;50.858;4.384;2023-04-30T02:49:19;8.20;;;5.88;;
22634;SDS011;11484;50.858;4.384;2023-04-30T02:51:45;8.77;;;5.70;;
22634;SDS011;11484;50.858;4.384;2023-04-30T02:54:11;8.98;;;5.55;;
22634;SDS011;11484;50.858;4.384;2023-04-30T02:56:36;11.82;;;6.28;;
22634;SDS011;11484;50.858;4.384;2023-04-30T02:59:05;8.68;;;6.10;;
22634;SDS011;11484;50.858;4.384;2023-04-30T03:01:32;8.55;;;5.57;;
22634;SDS011;11484;50.858;4.384;2023-04-30T03:03:57;8.77;;;6.07;;
22634;SDS011;11484;50.858;4.384;2023-04-30T03:06:23;9.38;;;5.80;;
22634;SDS011;11484;50.858;4.384;2023-04-30T03:08:49;10.93;;;6.32;;
22634;SDS011;11484;50.858;4.384;2023-04-30T03:11:14;10.60;;;5.75;;
22634;SDS011;11484;50.858;4.384;2023-04-30T03:13:41;9.73;;;6.00;;
22634;SDS011;11484;50.858;4.384;2023-04-30T03:16:07;9.95;;;5.72;;
22634;SDS011;11484;50.858;4.384;2023-04-30T03:18:33;8.75;;;5.75;;
22634;SDS011;11484;50.858;4.384;2023-04-30T03:20:58;9.05;;;5.95;;
22634;SDS011;11484;50.858;4.384;2023-04-30T03:23:27;8.02;;;5.78;;
22634;SDS011;11484;50.858;4.384;2023-04-30T03:25:53;10.75;;;6.00;;
22634;SDS011;11484;50.858;4.384;2023-04-30T03:28:18;8.38;;;5.72;;
22634;SDS011;11484;50.858;4.384;2023-04-30T03:30:45;8.65;;;6.07;;
22634;SDS011;11484;50.858;4.384;2023-04-30T03:33:11;9.15;;;5.85;;
22634;SDS011;11484;50.858;4.384;2023-04-30T03:35:36;10.85;;;6.55;;
22634;SDS011;11484;50.858;4.384;2023-04-30T03:38:02;9.05;;;5.45;;
22634;SDS011;11484;50.858;4.384;2023-04-30T03:40:28;11.02;;;6.32;;
22634;SDS011;11484;50.858;4.384;2023-04-30T03:42:54;7.70;;;5.78;;
22634;SDS011;11484;50.858;4.384;2023-04-30T03:45:20;9.00;;;5.68;;
22634;SDS011;11484;50.858;4.384;2023-04-30T03:47:45;9.93;;;6.18;;
22634;SDS011;11484;50.858;4.384;2023-04-30T03:50:11;9.38;;;6.45;;
22634;SDS011;11484;50.858;4.384;2023-04-30T03:52:38;9.80;;;6.22;;
22634;SDS011;11484;50.858;4.384;2023-04-30T03:55:03;12.38;;;6.95;;
22634;SDS011;11484;50.858;4.384;2023-04-30T03:57:30;10.07;;;6.10;;
22634;SDS011;11484;50.858;4.384;2023-04-30T03:59:57;9.10;;;6.20;;
22634;SDS011;11484;50.858;4.384;2023-04-30T04:02:23;9.52;;;5.90;;
22634;SDS011;11484;50.858;4.384;2023-04-30T04:04:49;12.82;;;6.47;;
22634;SDS011;11484;50.858;4.384;2023-04-30T04:07:15;11.15;;;6.35;;
22634;SDS011;11484;50.858;4.384;2023-04-30T04:09:41;12.48;;;6.95;;
22634;SDS011;11484;50.858;4.384;2023-04-30T04:12:07;9.55;;;6.25;;
22634;SDS011;11484;50.858;4.384;2023-04-30T04:14:33;12.98;;;6.65;;
22634;SDS011;11484;50.858;4.384;2023-04-30T04:16:59;10.15;;;6.82;;
22634;SDS011;11484;50.858;4.384;2023-04-30T04:19:25;10.90;;;6.35;;
22634;SDS011;11484;50.858;4.384;2023-04-30T04:21:52;11.25;;;6.68;;
22634;SDS011;11484;50.858;4.384;2023-04-30T04:24:18;11.75;;;6.85;;
22634;SDS011;11484;50.858;4.384;2023-04-30T04:26:44;13.27;;;7.18;;
22634;SDS011;11484;50.858;4.384;2023-04-30T04:29:10;11.80;;;7.00;;
22634;SDS011;11484;50.858;4.384;2023-04-30T04:31:36;12.50;;;6.85;;
22634;SDS011;11484;50.858;4.384;2023-04-30T04:34:03;10.77;;;6.75;;
22634;SDS011;11484;50.858;4.384;2023-04-30T04:36:29;12.52;;;7.50;;
22634;SDS011;11484;50.858;4.384;2023-04-30T04:38:59;11.25;;;7.25;;
22634;SDS011;11484;50.858;4.384;2023-04-30T04:41:28;10.50;;;7.10;;
22634;SDS011;11484;50.858;4.384;2023-04-30T04:43:58;12.55;;;7.18;;
22634;SDS011;11484;50.858;4.384;2023-04-30T04:46:24;12.05;;;7.05;;
22634;SDS011;11484;50.858;4.384;2023-04-30T04:48:50;13.25;;;7.38;;
22634;SDS011;11484;50.858;4.384;2023-04-30T04:51:17;13.98;;;7.05;;
22634;SDS011;11484;50.858;4.384;2023-04-30T04:53:42;13.20;;;7.45;;
22634;SDS011;11484;50.858;4.384;2023-04-30T04:56:08;14.13;;;8.32;;
22634;SDS011;11484;50.858;4.384;2023-04-30T04:58:34;15.75;;;7.35;;
22634;SDS011;11484;50.858;4.384;2023-04-30T05:01:00;12.02;;;7.47;;
22634;SDS011;11484;50.858;4.384;2023-04-30T05:03:27;10.38;;;6.82;;
22634;SDS011;11484;50.858;4.384;2023-04-30T05:05:53;12.35;;;7.28;;
22634;SDS011;11484;50.858;4.384;2023-04-30T05:08:19;9.75;;;7.05;;
22634;SDS011;11484;50.858;4.384;2023-04-30T05:10:44;11.18;;;7.18;;
22634;SDS011;11484;50.858;4.384;2023-04-30T05:13:10;12.45;;;6.95;;
22634;SDS011;11484;50.858;4.384;2023-04-30T05:15:36;12.73;;;7.55;;
22634;SDS011;11484;50.858;4.384;2023-04-30T05:18:02;11.27;;;7.45;;
22634;SDS011;11484;50.858;4.384;2023-04-30T05:20:28;12.85;;;6.78;;
22634;SDS011;11484;50.858;4.384;2023-04-30T05:22:53;15.43;;;8.13;;
22634;SDS011;11484;50.858;4.384;2023-04-30T05:25:19;13.40;;;8.02;;
22634;SDS011;11484;50.858;4.384;2023-04-30T05:27:45;12.63;;;7.55;;
22634;SDS011;11484;50.858;4.384;2023-04-30T05:30:11;11.25;;;7.47;;
22634;SDS011;11484;50.858;4.384;2023-04-30T05:32:36;12.73;;;8.10;;
22634;SDS011;11484;50.858;4.384;2023-04-30T05:35:03;14.70;;;8.05;;
22634;SDS011;11484;50.858;4.384;2023-04-30T05:37:29;13.45;;;8.63;;
22634;SDS011;11484;50.858;4.384;2023-04-30T05:39:55;11.93;;;8.32;;
22634;SDS011;11484;50.858;4.384;2023-04-30T05:42:20;16.27;;;8.90;;
22634;SDS011;11484;50.858;4.384;2023-04-30T05:44:47;14.10;;;8.60;;
22634;SDS011;11484;50.858;4.384;2023-04-30T05:47:13;13.82;;;8.77;;
22634;SDS011;11484;50.858;4.384;2023-04-30T05:49:39;17.48;;;10.60;;
22634;SDS011;11484;50.858;4.384;2023-04-30T05:52:05;16.08;;;9.07;;
22634;SDS011;11484;50.858;4.384;2023-04-30T05:54:30;14.07;;;9.52;;
22634;SDS011;11484;50.858;4.384;2023-04-30T05:56:56;15.48;;;9.35;;
22634;SDS011;11484;50.858;4.384;2023-04-30T05:59:22;16.17;;;9.82;;
22634;SDS011;11484;50.858;4.384;2023-04-30T06:01:48;17.45;;;10.73;;
22634;SDS011;11484;50.858;4.384;2023-04-30T06:04:14;15.02;;;10.15;;
22634;SDS011;11484;50.858;4.384;2023-04-30T06:06:39;17.00;;;10.20;;
22634;SDS011;11484;50.858;4.384;2023-04-30T06:09:05;16.73;;;9.25;;
22634;SDS011;11484;50.858;4.384;2023-04-30T06:11:31;18.98;;;9.90;;
22634;SDS011;11484;50.858;4.384;2023-04-30T06:13:57;16.27;;;9.63;;
22634;SDS011;11484;50.858;4.384;2023-04-30T06:16:23;16.70;;;10.10;;
22634;SDS011;11484;50.858;4.384;2023-04-30T06:18:48;16.50;;;10.60;;
22634;SDS011;11484;50.858;4.384;2023-04-30T06:21:14;17.35;;;11.00;;
22634;SDS011;11484;50.858;4.384;2023-04-30T06:23:39;15.57;;;10.48;;
22634;SDS011;11484;50.858;4.384;2023-04-30T06:26:05;19.15;;;10.63;;
22634;SDS011;11484;50.858;4.384;2023-04-30T06:28:31;18.33;;;10.98;;
22634;SDS011;11484;50.858;4.384;2023-04-30T06:30:57;14.60;;;9.88;;
22634;SDS011;11484;50.858;4.384;2023-04-30T06:33:23;15.55;;;10.38;;
22634;SDS011;11484;50.858;4.384;2023-04-30T06:35:48;14.93;;;9.52;;
22634;SDS011;11484;50.858;4.384;2023-04-30T06:40:45;12.23;;;8.75;;
22634;SDS011;11484;50.858;4.384;2023-04-30T06:43:11;14.00;;;9.00;;
22634;SDS011;11484;50.858;4.384;2023-04-30T06:45:37;13.65;;;9.18;;
22634;SDS011;11484;50.858;4.384;2023-04-30T06:48:03;12.43;;;9.00;;
22634;SDS011;11484;50.858;4.384;2023-04-30T06:50:29;13.10;;;9.55;;
22634;SDS011;11484;50.858;4.384;2023-04-30T06:52:55;13.15;;;8.85;;
22634;SDS011;11484;50.858;4.384;2023-04-30T06:55:20;11.85;;;8.55;;
22634;SDS011;11484;50.858;4.384;2023-04-30T06:57:46;14.88;;;9.90;;
22634;SDS011;11484;50.858;4.384;2023-04-30T07:00:12;13.82;;;9.25;;
22634;SDS011;11484;50.858;4.384;2023-04-30T07:02:41;12.80;;;9.27;;
22634;SDS011;11484;50.858;4.384;2023-04-30T07:05:07;11.50;;;8.82;;
22634;SDS011;11484;50.858;4.384;2023-04-30T07:07:35;11.93;;;8.80;;
22634;SDS011;11484;50.858;4.384;2023-04-30T07:10:01;13.70;;;10.00;;
22634;SDS011;11484;50.858;4.384;2023-04-30T07:12:26;16.15;;;10.07;;
22634;SDS011;11484;50.858;4.384;2023-04-30T07:14:52;13.23;;;9.98;;
22634;SDS011;11484;50.858;4.384;2023-04-30T07:17:21;16.40;;;10.50;;
22634;SDS011;11484;50.858;4.384;2023-04-30T07:19:46;16.42;;;10.50;;
22634;SDS011;11484;50.858;4.384;2023-04-30T07:22:12;14.93;;;10.50;;
22634;SDS011;11484;50.858;4.384;2023-04-30T07:24:37;16.77;;;10.57;;
22634;SDS011;11484;50.858;4.384;2023-04-30T07:27:03;13.65;;;9.80;;
22634;SDS011;11484;50.858;4.384;2023-04-30T07:29:31;14.93;;;10.85;;
22634;SDS011;11484;50.858;4.384;2023-04-30T07:31:57;13.68;;;10.45;;
22634;SDS011;11484;50.858;4.384;2023-04-30T07:34:23;14.88;;;10.98;;
22634;SDS011;11484;50.858;4.384;2023-04-30T07:36:49;16.15;;;11.65;;
22634;SDS011;11484;50.858;4.384;2023-04-30T07:39:15;13.75;;;10.95;;
22634;SDS011;11484;50.858;4.384;2023-04-30T07:41:41;13.43;;;10.82;;
22634;SDS011;11484;50.858;4.384;2023-04-30T07:44:07;14.40;;;10.85;;
22634;SDS011;11484;50.858;4.384;2023-04-30T07:46:33;15.52;;;10.35;;
22634;SDS011;11484;50.858;4.384;2023-04-30T07:49:00;13.73;;;10.20;;
22634;SDS011;11484;50.858;4.384;2023-04-30T07:51:28;13.07;;;10.48;;
22634;SDS011;11484;50.858;4.384;2023-04-30T07:53:54;13.13;;;10.50;;
22634;SDS011;11484;50.858;4.384;2023-04-30T07:56:20;12.55;;;9.43;;
22634;SDS011;11484;50.858;4.384;2023-04-30T07:58:46;13.32;;;9.95;;
22634;SDS011;11484;50.858;4.384;2023-04-30T08:01:11;14.57;;;10.38;;
22634;SDS011;11484;50.858;4.384;2023-04-30T08:03:40;12.82;;;10.35;;
22634;SDS011;11484;50.858;4.384;2023-04-30T08:06:05;14.95;;;10.25;;
22634;SDS011;11484;50.858;4.384;2023-04-30T08:08:31;14.05;;;10.77;;
22634;SDS011;11484;50.858;4.384;2023-04-30T08:10:57;13.98;;;10.43;;
22634;SDS011;11484;50.858;4.384;2023-04-30T08:13:23;13.07;;;10.30;;
22634;SDS011;11484;50.858;4.384;2023-04-30T08:15:48;17.15;;;10.43;;
22634;SDS011;11484;50.858;4.384;2023-04-30T08:18:14;12.50;;;10.10;;
22634;SDS011;11484;50.858;4.384;2023-04-30T08:20:40;14.10;;;10.40;;
22634;SDS011;11484;50.858;4.384;2023-04-30T08:23:05;13.27;;;9.48;;
22634;SDS011;11484;50.858;4.384;2023-04-30T08:25:31;11.90;;;9.43;;
22634;SDS011;11484;50.858;4.384;2023-04-30T08:27:58;12.40;;;9.45;;
22634;SDS011;11484;50.858;4.384;2023-04-30T08:30:23;11.38;;;9.82;;
22634;SDS011;11484;50.858;4.384;2023-04-30T08:32:49;13.32;;;9.93;;
22634;SDS011;11484;50.858;4.384;2023-04-30T08:35:16;12.50;;;9.35;;
22634;SDS011;11484;50.858;4.384;2023-04-30T08:37:41;13.20;;;9.95;;
22634;SDS011;11484;50.858;4.384;2023-04-30T08:40:07;13.57;;;9.90;;
22634;SDS011;11484;50.858;4.384;2023-04-30T08:42:36;11.63;;;8.77;;
22634;SDS011;11484;50.858;4.384;2023-04-30T08:45:09;10.48;;;7.97;;
22634;SDS011;11484;50.858;4.384;2023-04-30T08:47:36;12.02;;;9.43;;
22634;SDS011;11484;50.858;4.384;2023-04-30T08:50:03;13.88;;;10.38;;
22634;SDS011;11484;50.858;4.384;2023-04-30T08:52:33;12.43;;;9.65;;
22634;SDS011;11484;50.858;4.384;2023-04-30T08:55:01;11.47;;;8.80;;
22634;SDS011;11484;50.858;4.384;2023-04-30T08:57:31;10.95;;;9.10;;
22634;SDS011;11484;50.858;4.384;2023-04-30T08:59:57;12.30;;;7.80;;
22634;SDS011;11484;50.858;4.384;2023-04-30T09:02:24;12.02;;;8.02;;
22634;SDS011;11484;50.858;4.384;2023-04-30T09:04:50;11.00;;;7.60;;
22634;SDS011;11484;50.858;4.384;2023-04-30T09:07:16;10.63;;;7.78;;
22634;SDS011;11484;50.858;4.384;2023-04-30T09:09:42;12.07;;;8.43;;
22634;SDS011;11484;50.858;4.384;2023-04-30T09:12:12;10.38;;;7.82;;
22634;SDS011;11484;50.858;4.384;2023-04-30T09:14:39;12.82;;;8.50;;
22634;SDS011;11484;50.858;4.384;2023-04-30T09:17:06;10.82;;;7.65;;
22634;SDS011;11484;50.858;4.384;2023-04-30T09:19:35;8.17;;;6.73;;
22634;SDS011;11484;50.858;4.384;2023-04-30T09:24:47;10.82;;;7.13;;
22634;SDS011;11484;50.858;4.384;2023-04-30T09:27:16;9.05;;;6.78;;
22634;SDS011;11484;50.858;4.384;2023-04-30T09:29:42;8.30;;;6.32;;
22634;SDS011;11484;50.858;4.384;2023-04-30T09:32:09;11.68;;;7.50;;
22634;SDS011;11484;50.858;4.384;2023-04-30T09:34:35;6.95;;;5.57;;
22634;SDS011;11484;50.858;4.384;2023-04-30T09:37:01;9.68;;;6.90;;
22634;SDS011;11484;50.858;4.384;2023-04-30T09:39:28;10.25;;;6.65;;
22634;SDS011;11484;50.858;4.384;2023-04-30T09:42:06;8.88;;;6.60;;
22634;SDS011;11484;50.858;4.384;2023-04-30T09:44:35;9.48;;;7.32;;
22634;SDS011;11484;50.858;4.384;2023-04-30T09:47:02;10.23;;;7.90;;
22634;SDS011;11484;50.858;4.384;2023-04-30T09:49:28;8.30;;;6.05;;
22634;SDS011;11484;50.858;4.384;2023-04-30T09:51:58;8.02;;;6.22;;
22634;SDS011;11484;50.858;4.384;2023-04-30T09:54:28;8.65;;;6.68;;
22634;SDS011;11484;50.858;4.384;2023-04-30T09:56:56;9.10;;;6.78;;
22634;SDS011;11484;50.858;4.384;2023-04-30T09:59:26;8.15;;;7.25;;
22634;SDS011;11484;50.858;4.384;2023-04-30T10:01:57;10.98;;;7.15;;
22634;SDS011;11484;50.858;4.384;2023-04-30T10:04:25;10.95;;;6.50;;
22634;SDS011;11484;50.858;4.384;2023-04-30T10:06:57;9.27;;;5.90;;
22634;SDS011;11484;50.858;4.384;2023-04-30T10:09:28;8.55;;;6.45;;
22634;SDS011;11484;50.858;4.384;2023-04-30T10:12:00;9.57;;;6.28;;
22634;SDS011;11484;50.858;4.384;2023-04-30T10:14:28;8.95;;;6.80;;
22634;SDS011;11484;50.858;4.384;2023-04-30T10:17:01;9.20;;;6.20;;
22634;SDS011;11484;50.858;4.384;2023-04-30T10:19:35;9.77;;;6.90;;
22634;SDS011;11484;50.858;4.384;2023-04-30T10:24:31;8.30;;;6.57;;
22634;SDS011;11484;50.858;4.384;2023-04-30T10:26:57;7.75;;;5.82;;
22634;SDS011;11484;50.858;4.384;2023-04-30T10:29:24;10.05;;;6.72;;
22634;SDS011;11484;50.858;4.384;2023-04-30T10:31:49;8.82;;;5.20;;
22634;SDS011;11484;50.858;4.384;2023-04-30T10:37:23;7.97;;;5.68;;
22634;SDS011;11484;50.858;4.384;2023-04-30T10:39:58;7.53;;;5.32;;
22634;SDS011;11484;50.858;4.384;2023-04-30T10:42:24;7.45;;;4.88;;
22634;SDS011;11484;50.858;4.384;2023-04-30T10:44:50;8.18;;;5.30;;
22634;SDS011;11484;50.858;4.384;2023-04-30T10:47:16;7.63;;;4.78;;
22634;SDS011;11484;50.858;4.384;2023-04-30T10:49:46;8.85;;;4.95;;
22634;SDS011;11484;50.858;4.384;2023-04-30T10:54:50;8.38;;;4.63;;
22634;SDS011;11484;50.858;4.384;2023-04-30T10:57:16;6.20;;;4.30;;
22634;SDS011;11484;50.858;4.384;2023-04-30T10:59:49;6.60;;;4.32;;
22634;SDS011;11484;50.858;4.384;2023-04-30T11:02:16;6.75;;;4.22;;
22634;SDS011;11484;50.858;4.384;2023-04-30T11:07:30;7.22;;;4.65;;
22634;SDS011;11484;50.858;4.384;2023-04-30T11:09:56;6.90;;;4.88;;
22634;SDS011;11484;50.858;4.384;2023-04-30T11:12:28;6.60;;;4.78;;
22634;SDS011;11484;50.858;4.384;2023-04-30T11:14:59;7.38;;;4.13;;
22634;SDS011;11484;50.858;4.384;2023-04-30T11:17:30;6.93;;;4.80;;
22634;SDS011;11484;50.858;4.384;2023-04-30T11:19:58;6.55;;;4.70;;
22634;SDS011;11484;50.858;4.384;2023-04-30T11:22:25;8.07;;;4.60;;
22634;SDS011;11484;50.858;4.384;2023-04-30T11:27:37;6.60;;;4.30;;
22634;SDS011;11484;50.858;4.384;2023-04-30T11:30:18;5.93;;;3.85;;
22634;SDS011;11484;50.858;4.384;2023-04-30T11:32:45;8.18;;;3.97;;
22634;SDS011;11484;50.858;4.384;2023-04-30T11:35:12;6.85;;;4.03;;
22634;SDS011;11484;50.858;4.384;2023-04-30T11:37:42;7.13;;;4.28;;
22634;SDS011;11484;50.858;4.384;2023-04-30T11:40:10;5.28;;;3.35;;
22634;SDS011;11484;50.858;4.384;2023-04-30T11:42:38;5.63;;;3.67;;
22634;SDS011;11484;50.858;4.384;2023-04-30T11:45:06;5.28;;;3.38;;
22634;SDS011;11484;50.858;4.384;2023-04-30T11:47:42;5.97;;;3.22;;
22634;SDS011;11484;50.858;4.384;2023-04-30T11:50:11;5.75;;;3.47;;
22634;SDS011;11484;50.858;4.384;2023-04-30T11:52:39;6.47;;;3.55;;
22634;SDS011;11484;50.858;4.384;2023-04-30T11:55:14;7.15;;;3.38;;
22634;SDS011;11484;50.858;4.384;2023-04-30T11:57:42;5.38;;;3.10;;
22634;SDS011;11484;50.858;4.384;2023-04-30T12:00:10;4.13;;;2.83;;
22634;SDS011;11484;50.858;4.384;2023-04-30T12:02:41;5.03;;;3.22;;
22634;SDS011;11484;50.858;4.384;2023-04-30T12:05:11;5.13;;;2.50;;
22634;SDS011;11484;50.858;4.384;2023-04-30T12:07:38;3.45;;;2.40;;
22634;SDS011;11484;50.858;4.384;2023-04-30T12:10:04;5.68;;;3.55;;
22634;SDS011;11484;50.858;4.384;2023-04-30T12:12:31;3.38;;;2.47;;
22634;SDS011;11484;50.858;4.384;2023-04-30T12:15:02;5.03;;;3.00;;
22634;SDS011;11484;50.858;4.384;2023-04-30T12:17:38;4.70;;;2.95;;
22634;SDS011;11484;50.858;4.384;2023-04-30T12:20:05;4.95;;;2.75;;
22634;SDS011;11484;50.858;4.384;2023-04-30T12:22:32;5.85;;;3.50;;
22634;SDS011;11484;50.858;4.384;2023-04-30T12:24:58;5.28;;;3.30;;
22634;SDS011;11484;50.858;4.384;2023-04-30T12:27:25;4.72;;;2.90;;
22634;SDS011;11484;50.858;4.384;2023-04-30T12:29:51;4.63;;;3.15;;
22634;SDS011;11484;50.858;4.384;2023-04-30T12:32:19;5.05;;;3.08;;
22634;SDS011;11484;50.858;4.384;2023-04-30T12:34:46;8.50;;;4.40;;
22634;SDS011;11484;50.858;4.384;2023-04-30T12:37:15;6.68;;;4.30;;
22634;SDS011;11484;50.858;4.384;2023-04-30T12:39:41;5.97;;;3.88;;
22634;SDS011;11484;50.858;4.384;2023-04-30T12:42:07;5.32;;;3.58;;
22634;SDS011;11484;50.858;4.384;2023-04-30T12:44:41;4.57;;;3.50;;
22634;SDS011;11484;50.858;4.384;2023-04-30T12:47:10;5.40;;;3.58;;
22634;SDS011;11484;50.858;4.384;2023-04-30T12:49:38;5.03;;;3.67;;
22634;SDS011;11484;50.858;4.384;2023-04-30T12:52:05;4.75;;;3.65;;
22634;SDS011;11484;50.858;4.384;2023-04-30T12:54:37;5.50;;;3.22;;
22634;SDS011;11484;50.858;4.384;2023-04-30T12:57:10;5.78;;;3.20;;
22634;SDS011;11484;50.858;4.384;2023-04-30T13:02:21;4.35;;;2.70;;
22634;SDS011;11484;50.858;4.384;2023-04-30T13:04:48;4.32;;;2.80;;
22634;SDS011;11484;50.858;4.384;2023-04-30T13:07:15;3.63;;;2.75;;
22634;SDS011;11484;50.858;4.384;2023-04-30T13:09:41;4.57;;;2.50;;
22634;SDS011;11484;50.858;4.384;2023-04-30T13:12:07;4.18;;;2.60;;
22634;SDS011;11484;50.858;4.384;2023-04-30T13:14:36;4.30;;;2.67;;
22634;SDS011;11484;50.858;4.384;2023-04-30T13:17:02;4.00;;;2.83;;
22634;SDS011;11484;50.858;4.384;2023-04-30T13:19:31;5.28;;;2.85;;
22634;SDS011;11484;50.858;4.384;2023-04-30T13:21:57;3.30;;;2.30;;
22634;SDS011;11484;50.858;4.384;2023-04-30T13:24:24;3.90;;;2.20;;
22634;SDS011;11484;50.858;4.384;2023-04-30T13:26:52;4.35;;;2.30;;
22634;SDS011;11484;50.858;4.384;2023-04-30T13:29:18;3.78;;;1.85;;
22634;SDS011;11484;50.858;4.384;2023-04-30T13:31:45;3.58;;;2.25;;
22634;SDS011;11484;50.858;4.384;2023-04-30T13:34:13;3.78;;;2.25;;
22634;SDS011;11484;50.858;4.384;2023-04-30T13:36:39;4.30;;;2.65;;
22634;SDS011;11484;50.858;4.384;2023-04-30T13:39:05;3.03;;;2.05;;
22634;SDS011;11484;50.858;4.384;2023-04-30T13:41:31;4.82;;;2.45;;
22634;SDS011;11484;50.858;4.384;2023-04-30T13:43:56;3.33;;;2.33;;
22634;SDS011;11484;50.858;4.384;2023-04-30T13:46:24;3.65;;;2.25;;
22634;SDS011;11484;50.858;4.384;2023-04-30T13:48:49;4.30;;;2.63;;
22634;SDS011;11484;50.858;4.384;2023-04-30T13:51:17;5.25;;;2.28;;
22634;SDS011;11484;50.858;4.384;2023-04-30T13:53:43;4.93;;;2.63;;
22634;SDS011;11484;50.858;4.384;2023-04-30T13:56:09;4.05;;;2.40;;
22634;SDS011;11484;50.858;4.384;2023-04-30T13:58:36;3.42;;;2.25;;
22634;SDS011;11484;50.858;4.384;2023-04-30T14:01:02;4.03;;;2.58;;
22634;SDS011;11484;50.858;4.384;2023-04-30T14:03:28;4.82;;;2.50;;
22634;SDS011;11484;50.858;4.384;2023-04-30T14:05:53;3.55;;;2.38;;
22634;SDS011;11484;50.858;4.384;2023-04-30T14:08:19;5.57;;;2.40;;
22634;SDS011;11484;50.858;4.384;2023-04-30T14:10:45;4.45;;;2.63;;
22634;SDS011;11484;50.858;4.384;2023-04-30T14:13:11;5.95;;;2.80;;
22634;SDS011;11484;50.858;4.384;2023-04-30T14:15:37;3.28;;;2.40;;
22634;SDS011;11484;50.858;4.384;2023-04-30T14:18:03;3.40;;;2.42;;
22634;SDS011;11484;50.858;4.384;2023-04-30T14:20:29;4.07;;;2.47;;
22634;SDS011;11484;50.858;4.384;2023-04-30T14:22:55;3.08;;;2.22;;
22634;SDS011;11484;50.858;4.384;2023-04-30T14:25:21;4.35;;;2.78;;
22634;SDS011;11484;50.858;4.384;2023-04-30T14:27:47;5.05;;;2.78;;
22634;SDS011;11484;50.858;4.384;2023-04-30T14:30:13;3.88;;;2.13;;
22634;SDS011;11484;50.858;4.384;2023-04-30T14:32:39;2.72;;;1.80;;
22634;SDS011;11484;50.858;4.384;2023-04-30T14:35:05;2.95;;;1.92;;
22634;SDS011;11484;50.858;4.384;2023-04-30T14:37:31;2.78;;;1.85;;
22634;SDS011;11484;50.858;4.384;2023-04-30T14:39:57;3.80;;;2.17;;
22634;SDS011;11484;50.858;4.384;2023-04-30T14:42:24;3.90;;;2.30;;
22634;SDS011;11484;50.858;4.384;2023-04-30T14:44:50;3.85;;;2.10;;
22634;SDS011;11484;50.858;4.384;2023-04-30T14:47:17;4.28;;;2.50;;
22634;SDS011;11484;50.858;4.384;2023-04-30T14:49:44;3.22;;;2.40;;
22634;SDS011;11484;50.858;4.384;2023-04-30T14:52:09;4.28;;;2.17;;
22634;SDS011;11484;50.858;4.384;2023-04-30T14:54:35;5.32;;;2.85;;
22634;SDS011;11484;50.858;4.384;2023-04-30T14:57:01;3.13;;;2.03;;
22634;SDS011;11484;50.858;4.384;2023-04-30T14:59:28;4.28;;;2.53;;
22634;SDS011;11484;50.858;4.384;2023-04-30T15:01:53;3.70;;;2.30;;
22634;SDS011;11484;50.858;4.384;2023-04-30T15:04:20;3.38;;;2.67;;
22634;SDS011;11484;50.858;4.384;2023-04-30T15:06:45;4.15;;;2.30;;
22634;SDS011;11484;50.858;4.384;2023-04-30T15:09:11;4.00;;;2.10;;
22634;SDS011;11484;50.858;4.384;2023-04-30T15:11:37;5.20;;;2.70;;
22634;SDS011;11484;50.858;4.384;2023-04-30T15:14:03;2.90;;;2.20;;
22634;SDS011;11484;50.858;4.384;2023-04-30T15:16:29;3.25;;;2.10;;
22634;SDS011;11484;50.858;4.384;2023-04-30T15:18:54;3.38;;;2.10;;